Aeroporto :
LOGIN :

Iscrizione | Disclaimer

   EN    FR    IT 

 










Sommario :    VFR   VFR Marginale   IFR   IFR Intensivo   IFR Molto Intensivo
Visibilità : 
Base nubi : 
>= 8 km
>= 3000ft
5 / 8 km
1000 / 3000 ft
1500m / 5 km
500 / 1000 ft
800 / 1500m
200 / 500 ft
< 800m
< 200 ft
Simboli :   Temporali  Nebbia  Neve Forte  Precipitazioni Forti  Vento > 20 kt
SIGMETs :   Varie  Temporali  Ghiacco  Turbolenza  Onda orograficha  Ceneri Vulcaniche






- Altitudine del aeroporto : 101 ft
- Codice IATA : GLO


EGBJ - Gloucestershire

ULTIMO METAR :
  • 131150Z 22005KT 9999 FEW020 SCT035 08/04 Q0999

METARs OBSOLETI :
  • 131120Z 23005KT 9999 FEW020 SCT035 08/04 Q0999
  • 131050Z 21006KT 180V250 9999 FEW035 08/04 Q1000
  • 131020Z 24005KT 210V270 9999 FEW040 08/05 Q1000
  • 130950Z 25006KT 9999 FEW040 08/05 Q1000
  • 130920Z 24006KT 9999 FEW035 06/04 Q1001
  • 130850Z 23005KT 9999 FEW035 06/04 Q1001

TAF TAF EGBJ
Valido dal 13 a 12 ore il 13 a 20 ore UTC


131103Z 1312/1320 21006KT 9999 SCT035
BECMG 1315/1318 12010KT
PROB30
TEMPO 1318/1320 BKN012



MetMap, La meteo Aeronautica in un colpo d'occhio ! - Copyright ORBIFLY Dicembre 2007 - Disclaimer

ORBIFLY MET'MAP TEAM :

Programmazione e sviluppo : Alexandra Zaïnal
Concezione e sviluppo : Baudouin d'Aumeries
Co-Programmazione e sviluppo : Marc-Olivier Méhu
Supporto tecnico e logistico : Manuel Goepfert
Aiuto per la traduzione : Arnaldo La Scala

Contatto : metmap@orbifly.com




FONTI E CREDITI :

   NOAA